sensor_id;sensor_type;location;lat;lon;timestamp;temperature;humidity
77839;SHT31;67034;43.226;27.932;2023-03-01T00:00:46;5.74;87.38
77839;SHT31;67034;43.226;27.932;2023-03-01T00:03:12;5.63;87.85
77839;SHT31;67034;43.226;27.932;2023-03-01T00:05:44;5.59;87.71
77839;SHT31;67034;43.226;27.932;2023-03-01T00:08:10;5.56;88.03
77839;SHT31;67034;43.226;27.932;2023-03-01T00:10:36;5.67;87.47
77839;SHT31;67034;43.226;27.932;2023-03-01T00:13:02;5.66;87.46
77839;SHT31;67034;43.226;27.932;2023-03-01T00:15:27;5.60;87.73
77839;SHT31;67034;43.226;27.932;2023-03-01T00:17:53;5.52;87.26
77839;SHT31;67034;43.226;27.932;2023-03-01T00:20:18;5.38;87.69
77839;SHT31;67034;43.226;27.932;2023-03-01T00:22:46;5.39;88.47
77839;SHT31;67034;43.226;27.932;2023-03-01T00:25:11;5.49;88.25
77839;SHT31;67034;43.226;27.932;2023-03-01T00:27:37;5.50;87.74
77839;SHT31;67034;43.226;27.932;2023-03-01T00:30:03;5.38;88.16
77839;SHT31;67034;43.226;27.932;2023-03-01T00:32:29;5.34;88.59
77839;SHT31;67034;43.226;27.932;2023-03-01T00:34:54;5.19;88.76
77839;SHT31;67034;43.226;27.932;2023-03-01T00:37:20;5.19;88.80
77839;SHT31;67034;43.226;27.932;2023-03-01T00:39:47;5.15;89.02
77839;SHT31;67034;43.226;27.932;2023-03-01T00:42:13;5.12;89.07
77839;SHT31;67034;43.226;27.932;2023-03-01T00:44:38;5.25;89.24
77839;SHT31;67034;43.226;27.932;2023-03-01T00:47:04;5.24;88.47
77839;SHT31;67034;43.226;27.932;2023-03-01T00:49:30;5.18;87.83
77839;SHT31;67034;43.226;27.932;2023-03-01T00:51:55;5.19;87.77
77839;SHT31;67034;43.226;27.932;2023-03-01T00:54:21;5.24;86.90
77839;SHT31;67034;43.226;27.932;2023-03-01T00:56:48;5.25;86.70
77839;SHT31;67034;43.226;27.932;2023-03-01T00:59:14;5.35;86.55
77839;SHT31;67034;43.226;27.932;2023-03-01T01:01:39;5.28;86.50
77839;SHT31;67034;43.226;27.932;2023-03-01T01:04:06;5.27;86.94
77839;SHT31;67034;43.226;27.932;2023-03-01T01:06:34;5.21;85.65
77839;SHT31;67034;43.226;27.932;2023-03-01T01:09:01;5.15;86.30
77839;SHT31;67034;43.226;27.932;2023-03-01T01:11:29;5.29;86.00
77839;SHT31;67034;43.226;27.932;2023-03-01T01:13:57;5.29;85.68
77839;SHT31;67034;43.226;27.932;2023-03-01T01:16:24;5.29;85.67
77839;SHT31;67034;43.226;27.932;2023-03-01T01:18:51;5.36;84.89
77839;SHT31;67034;43.226;27.932;2023-03-01T01:21:19;5.19;85.64
77839;SHT31;67034;43.226;27.932;2023-03-01T01:23:46;5.27;85.77
77839;SHT31;67034;43.226;27.932;2023-03-01T01:26:14;5.29;85.78
77839;SHT31;67034;43.226;27.932;2023-03-01T01:28:40;5.11;85.37
77839;SHT31;67034;43.226;27.932;2023-03-01T01:31:07;5.19;86.20
77839;SHT31;67034;43.226;27.932;2023-03-01T01:33:33;5.27;85.94
77839;SHT31;67034;43.226;27.932;2023-03-01T01:35:59;5.28;85.92
77839;SHT31;67034;43.226;27.932;2023-03-01T01:38:25;5.31;86.10
77839;SHT31;67034;43.226;27.932;2023-03-01T01:40:51;5.28;86.11
77839;SHT31;67034;43.226;27.932;2023-03-01T01:43:20;5.14;86.98
77839;SHT31;67034;43.226;27.932;2023-03-01T01:45:46;5.27;86.11
77839;SHT31;67034;43.226;27.932;2023-03-01T01:48:17;5.28;86.24
77839;SHT31;67034;43.226;27.932;2023-03-01T01:50:43;5.25;86.95
77839;SHT31;67034;43.226;27.932;2023-03-01T01:53:13;5.25;86.51
77839;SHT31;67034;43.226;27.932;2023-03-01T01:55:42;5.27;86.64
77839;SHT31;67034;43.226;27.932;2023-03-01T01:58:12;5.28;86.47
77839;SHT31;67034;43.226;27.932;2023-03-01T02:00:39;5.34;86.48
77839;SHT31;67034;43.226;27.932;2023-03-01T02:03:07;5.21;86.70
77839;SHT31;67034;43.226;27.932;2023-03-01T02:05:39;5.02;86.18
77839;SHT31;67034;43.226;27.932;2023-03-01T02:08:11;5.18;87.24
77839;SHT31;67034;43.226;27.932;2023-03-01T02:10:38;5.24;87.03
77839;SHT31;67034;43.226;27.932;2023-03-01T02:13:04;5.21;86.70
77839;SHT31;67034;43.226;27.932;2023-03-01T02:15:32;5.11;87.16
77839;SHT31;67034;43.226;27.932;2023-03-01T02:17:58;5.14;87.10
77839;SHT31;67034;43.226;27.932;2023-03-01T02:20:33;5.17;87.41
77839;SHT31;67034;43.226;27.932;2023-03-01T02:23:01;5.08;86.84
77839;SHT31;67034;43.226;27.932;2023-03-01T02:25:39;5.22;86.16
77839;SHT31;67034;43.226;27.932;2023-03-01T02:30:39;5.11;86.44
77839;SHT31;67034;43.226;27.932;2023-03-01T02:33:25;5.08;86.96
77839;SHT31;67034;43.226;27.932;2023-03-01T02:35:52;5.02;87.55
77839;SHT31;67034;43.226;27.932;2023-03-01T02:38:18;5.21;86.78
77839;SHT31;67034;43.226;27.932;2023-03-01T02:40:45;5.27;86.98
77839;SHT31;67034;43.226;27.932;2023-03-01T02:43:10;5.01;87.95
77839;SHT31;67034;43.226;27.932;2023-03-01T02:45:43;5.25;86.60
77839;SHT31;67034;43.226;27.932;2023-03-01T02:48:13;5.28;86.62
77839;SHT31;67034;43.226;27.932;2023-03-01T02:50:52;5.31;86.06
77839;SHT31;67034;43.226;27.932;2023-03-01T02:53:24;5.27;86.99
77839;SHT31;67034;43.226;27.932;2023-03-01T02:55:53;5.15;86.40
77839;SHT31;67034;43.226;27.932;2023-03-01T02:58:19;5.27;85.89
77839;SHT31;67034;43.226;27.932;2023-03-01T03:00:46;5.29;85.86
77839;SHT31;67034;43.226;27.932;2023-03-01T03:03:15;5.42;84.36
77839;SHT31;67034;43.226;27.932;2023-03-01T03:05:41;4.92;86.51
77839;SHT31;67034;43.226;27.932;2023-03-01T03:08:07;5.08;87.44
77839;SHT31;67034;43.226;27.932;2023-03-01T03:10:34;5.11;87.18
77839;SHT31;67034;43.226;27.932;2023-03-01T03:13:03;5.32;86.22
77839;SHT31;67034;43.226;27.932;2023-03-01T03:15:29;5.36;85.47
77839;SHT31;67034;43.226;27.932;2023-03-01T03:17:58;5.18;86.52
77839;SHT31;67034;43.226;27.932;2023-03-01T03:20:26;5.27;86.76
77839;SHT31;67034;43.226;27.932;2023-03-01T03:22:54;5.28;86.73
77839;SHT31;67034;43.226;27.932;2023-03-01T03:25:21;5.21;87.48
77839;SHT31;67034;43.226;27.932;2023-03-01T03:27:48;5.12;87.11
77839;SHT31;67034;43.226;27.932;2023-03-01T03:30:17;5.11;87.01
77839;SHT31;67034;43.226;27.932;2023-03-01T03:32:44;5.27;87.08
77839;SHT31;67034;43.226;27.932;2023-03-01T03:35:23;5.24;86.36
77839;SHT31;67034;43.226;27.932;2023-03-01T03:37:51;5.12;86.78
77839;SHT31;67034;43.226;27.932;2023-03-01T03:40:30;5.00;86.75
77839;SHT31;67034;43.226;27.932;2023-03-01T03:43:16;5.25;86.14
77839;SHT31;67034;43.226;27.932;2023-03-01T03:45:43;5.15;86.05
77839;SHT31;67034;43.226;27.932;2023-03-01T03:48:09;5.15;86.84
77839;SHT31;67034;43.226;27.932;2023-03-01T03:50:37;5.28;86.94
77839;SHT31;67034;43.226;27.932;2023-03-01T03:53:06;5.25;86.71
77839;SHT31;67034;43.226;27.932;2023-03-01T03:55:32;5.18;87.03
77839;SHT31;67034;43.226;27.932;2023-03-01T03:58:00;5.22;86.68
77839;SHT31;67034;43.226;27.932;2023-03-01T04:00:33;5.18;86.10
77839;SHT31;67034;43.226;27.932;2023-03-01T04:02:59;5.12;86.61
77839;SHT31;67034;43.226;27.932;2023-03-01T04:05:27;5.07;87.33
77839;SHT31;67034;43.226;27.932;2023-03-01T04:07:54;5.27;86.47
77839;SHT31;67034;43.226;27.932;2023-03-01T04:10:35;5.21;86.56
77839;SHT31;67034;43.226;27.932;2023-03-01T04:13:02;5.11;86.89
77839;SHT31;67034;43.226;27.932;2023-03-01T04:15:28;5.11;86.73
77839;SHT31;67034;43.226;27.932;2023-03-01T04:17:54;5.01;87.22
77839;SHT31;67034;43.226;27.932;2023-03-01T04:20:22;5.17;86.99
77839;SHT31;67034;43.226;27.932;2023-03-01T04:22:51;5.10;86.84
77839;SHT31;67034;43.226;27.932;2023-03-01T04:25:19;5.07;87.08
77839;SHT31;67034;43.226;27.932;2023-03-01T04:27:45;5.17;86.60
77839;SHT31;67034;43.226;27.932;2023-03-01T04:30:11;5.11;86.62
77839;SHT31;67034;43.226;27.932;2023-03-01T04:32:37;5.00;86.25
77839;SHT31;67034;43.226;27.932;2023-03-01T04:35:03;5.01;86.82
77839;SHT31;67034;43.226;27.932;2023-03-01T04:37:29;5.10;86.46
77839;SHT31;67034;43.226;27.932;2023-03-01T04:39:55;5.22;85.58
77839;SHT31;67034;43.226;27.932;2023-03-01T04:42:22;5.27;85.79
77839;SHT31;67034;43.226;27.932;2023-03-01T04:44:48;5.28;85.22
77839;SHT31;67034;43.226;27.932;2023-03-01T04:47:16;5.25;85.85
77839;SHT31;67034;43.226;27.932;2023-03-01T04:49:42;5.21;86.07
77839;SHT31;67034;43.226;27.932;2023-03-01T04:52:08;5.17;86.48
77839;SHT31;67034;43.226;27.932;2023-03-01T04:54:35;5.17;86.50
77839;SHT31;67034;43.226;27.932;2023-03-01T04:57:01;5.19;86.10
77839;SHT31;67034;43.226;27.932;2023-03-01T04:59:29;5.17;86.04
77839;SHT31;67034;43.226;27.932;2023-03-01T05:01:56;5.14;85.88
77839;SHT31;67034;43.226;27.932;2023-03-01T05:04:22;5.22;85.62
77839;SHT31;67034;43.226;27.932;2023-03-01T05:06:47;5.32;84.79
77839;SHT31;67034;43.226;27.932;2023-03-01T05:09:13;5.31;85.62
77839;SHT31;67034;43.226;27.932;2023-03-01T05:11:39;5.22;85.30
77839;SHT31;67034;43.226;27.932;2023-03-01T05:14:05;5.24;84.92
77839;SHT31;67034;43.226;27.932;2023-03-01T05:16:33;5.18;85.41
77839;SHT31;67034;43.226;27.932;2023-03-01T05:18:59;5.29;84.90
77839;SHT31;67034;43.226;27.932;2023-03-01T05:21:25;5.08;85.42
77839;SHT31;67034;43.226;27.932;2023-03-01T05:23:51;5.04;85.56
77839;SHT31;67034;43.226;27.932;2023-03-01T05:26:19;5.07;85.65
77839;SHT31;67034;43.226;27.932;2023-03-01T05:28:45;5.12;85.43
77839;SHT31;67034;43.226;27.932;2023-03-01T05:31:10;5.24;84.69
77839;SHT31;67034;43.226;27.932;2023-03-01T05:33:38;5.22;85.03
77839;SHT31;67034;43.226;27.932;2023-03-01T05:36:06;5.08;84.99
77839;SHT31;67034;43.226;27.932;2023-03-01T05:38:33;5.02;84.87
77839;SHT31;67034;43.226;27.932;2023-03-01T05:40:59;4.97;86.10
77839;SHT31;67034;43.226;27.932;2023-03-01T05:43:25;5.01;86.32
77839;SHT31;67034;43.226;27.932;2023-03-01T05:45:51;5.11;86.30
77839;SHT31;67034;43.226;27.932;2023-03-01T05:48:17;5.19;85.83
77839;SHT31;67034;43.226;27.932;2023-03-01T05:50:46;5.22;85.19
77839;SHT31;67034;43.226;27.932;2023-03-01T05:53:15;5.29;84.68
77839;SHT31;67034;43.226;27.932;2023-03-01T05:55:41;5.32;84.31
77839;SHT31;67034;43.226;27.932;2023-03-01T05:58:13;5.28;85.02
77839;SHT31;67034;43.226;27.932;2023-03-01T06:00:42;4.94;85.41
77839;SHT31;67034;43.226;27.932;2023-03-01T06:03:10;5.15;85.64
77839;SHT31;67034;43.226;27.932;2023-03-01T06:05:36;5.29;85.01
77839;SHT31;67034;43.226;27.932;2023-03-01T06:08:03;5.27;85.29
77839;SHT31;67034;43.226;27.932;2023-03-01T06:10:29;5.35;85.21
77839;SHT31;67034;43.226;27.932;2023-03-01T06:12:55;5.35;85.29
77839;SHT31;67034;43.226;27.932;2023-03-01T06:15:21;5.45;84.31
77839;SHT31;67034;43.226;27.932;2023-03-01T06:17:47;5.46;84.80
77839;SHT31;67034;43.226;27.932;2023-03-01T06:20:14;5.32;84.97
77839;SHT31;67034;43.226;27.932;2023-03-01T06:22:40;5.28;85.05
77839;SHT31;67034;43.226;27.932;2023-03-01T06:25:08;5.40;85.09
77839;SHT31;67034;43.226;27.932;2023-03-01T06:27:34;5.48;85.25
77839;SHT31;67034;43.226;27.932;2023-03-01T06:30:00;5.24;84.82
77839;SHT31;67034;43.226;27.932;2023-03-01T06:32:26;5.29;84.48
77839;SHT31;67034;43.226;27.932;2023-03-01T06:34:52;5.56;83.59
77839;SHT31;67034;43.226;27.932;2023-03-01T06:37:18;5.43;84.54
77839;SHT31;67034;43.226;27.932;2023-03-01T06:39:43;5.53;84.60
77839;SHT31;67034;43.226;27.932;2023-03-01T06:42:10;5.60;84.48
77839;SHT31;67034;43.226;27.932;2023-03-01T06:44:36;5.42;84.47
77839;SHT31;67034;43.226;27.932;2023-03-01T06:47:02;5.63;83.55
77839;SHT31;67034;43.226;27.932;2023-03-01T06:49:28;5.66;84.34
77839;SHT31;67034;43.226;27.932;2023-03-01T06:51:54;5.63;85.00
77839;SHT31;67034;43.226;27.932;2023-03-01T06:54:22;5.48;84.83
77839;SHT31;67034;43.226;27.932;2023-03-01T06:56:48;5.36;85.25
77839;SHT31;67034;43.226;27.932;2023-03-01T06:59:15;5.29;85.05
77839;SHT31;67034;43.226;27.932;2023-03-01T07:01:41;5.40;85.86
77839;SHT31;67034;43.226;27.932;2023-03-01T07:04:06;5.43;85.22
77839;SHT31;67034;43.226;27.932;2023-03-01T07:06:32;5.43;85.22
77839;SHT31;67034;43.226;27.932;2023-03-01T07:08:57;5.62;85.16
77839;SHT31;67034;43.226;27.932;2023-03-01T07:11:23;5.63;85.74
77839;SHT31;67034;43.226;27.932;2023-03-01T07:13:49;5.73;84.16
77839;SHT31;67034;43.226;27.932;2023-03-01T07:16:16;5.43;85.34
77839;SHT31;67034;43.226;27.932;2023-03-01T07:18:41;5.67;84.56
77839;SHT31;67034;43.226;27.932;2023-03-01T07:21:08;5.69;84.01
77839;SHT31;67034;43.226;27.932;2023-03-01T07:23:34;5.79;83.98
77839;SHT31;67034;43.226;27.932;2023-03-01T07:26:03;5.79;83.68
77839;SHT31;67034;43.226;27.932;2023-03-01T07:28:29;5.94;82.77
77839;SHT31;67034;43.226;27.932;2023-03-01T07:31:00;5.83;83.94
77839;SHT31;67034;43.226;27.932;2023-03-01T07:33:27;5.91;84.04
77839;SHT31;67034;43.226;27.932;2023-03-01T07:35:56;5.80;84.88
77839;SHT31;67034;43.226;27.932;2023-03-01T07:38:22;5.70;84.63
77839;SHT31;67034;43.226;27.932;2023-03-01T07:40:49;5.74;84.60
77839;SHT31;67034;43.226;27.932;2023-03-01T07:43:15;5.91;82.80
77839;SHT31;67034;43.226;27.932;2023-03-01T07:45:40;5.85;83.92
77839;SHT31;67034;43.226;27.932;2023-03-01T07:48:06;5.83;83.57
77839;SHT31;67034;43.226;27.932;2023-03-01T07:50:33;5.83;82.06
77839;SHT31;67034;43.226;27.932;2023-03-01T07:52:59;5.90;83.56
77839;SHT31;67034;43.226;27.932;2023-03-01T07:55:25;5.94;84.16
77839;SHT31;67034;43.226;27.932;2023-03-01T07:57:50;6.06;83.25
77839;SHT31;67034;43.226;27.932;2023-03-01T08:00:17;6.13;82.51
77839;SHT31;67034;43.226;27.932;2023-03-01T08:02:42;6.06;82.60
77839;SHT31;67034;43.226;27.932;2023-03-01T08:05:08;6.08;83.51
77839;SHT31;67034;43.226;27.932;2023-03-01T08:07:36;6.10;82.44
77839;SHT31;67034;43.226;27.932;2023-03-01T08:10:03;6.20;82.78
77839;SHT31;67034;43.226;27.932;2023-03-01T08:12:29;6.29;81.69
77839;SHT31;67034;43.226;27.932;2023-03-01T08:14:55;6.31;81.80
77839;SHT31;67034;43.226;27.932;2023-03-01T08:17:20;6.32;81.26
77839;SHT31;67034;43.226;27.932;2023-03-01T08:19:46;6.37;81.15
77839;SHT31;67034;43.226;27.932;2023-03-01T08:22:11;6.45;80.70
77839;SHT31;67034;43.226;27.932;2023-03-01T08:24:38;6.44;80.76
77839;SHT31;67034;43.226;27.932;2023-03-01T08:27:04;6.38;79.24
77839;SHT31;67034;43.226;27.932;2023-03-01T08:29:31;6.41;80.93
77839;SHT31;67034;43.226;27.932;2023-03-01T08:31:57;6.50;79.51
77839;SHT31;67034;43.226;27.932;2023-03-01T08:34:23;6.44;79.90
77839;SHT31;67034;43.226;27.932;2023-03-01T08:36:48;6.61;80.09
77839;SHT31;67034;43.226;27.932;2023-03-01T08:39:16;6.56;77.60
77839;SHT31;67034;43.226;27.932;2023-03-01T08:41:45;6.55;78.43
77839;SHT31;67034;43.226;27.932;2023-03-01T08:44:13;6.56;77.82
77839;SHT31;67034;43.226;27.932;2023-03-01T08:46:40;6.53;78.21
77839;SHT31;67034;43.226;27.932;2023-03-01T08:49:07;6.50;79.28
77839;SHT31;67034;43.226;27.932;2023-03-01T08:51:33;6.55;77.58
77839;SHT31;67034;43.226;27.932;2023-03-01T08:54:02;6.49;78.31
77839;SHT31;67034;43.226;27.932;2023-03-01T08:56:28;6.62;78.01
77839;SHT31;67034;43.226;27.932;2023-03-01T08:58:55;6.37;79.16
77839;SHT31;67034;43.226;27.932;2023-03-01T09:01:21;6.41;79.53
77839;SHT31;67034;43.226;27.932;2023-03-01T09:03:47;5.90;80.89
77839;SHT31;67034;43.226;27.932;2023-03-01T09:06:13;6.10;80.23
77839;SHT31;67034;43.226;27.932;2023-03-01T09:08:40;6.31;80.28
77839;SHT31;67034;43.226;27.932;2023-03-01T09:11:09;6.41;80.07
77839;SHT31;67034;43.226;27.932;2023-03-01T09:13:36;6.46;79.35
77839;SHT31;67034;43.226;27.932;2023-03-01T09:16:03;6.69;79.14
77839;SHT31;67034;43.226;27.932;2023-03-01T09:18:30;6.73;76.83
77839;SHT31;67034;43.226;27.932;2023-03-01T09:21:01;6.34;77.25
77839;SHT31;67034;43.226;27.932;2023-03-01T09:23:27;6.25;78.69
77839;SHT31;67034;43.226;27.932;2023-03-01T09:25:52;5.86;80.35
77839;SHT31;67034;43.226;27.932;2023-03-01T09:28:18;5.91;80.97
77839;SHT31;67034;43.226;27.932;2023-03-01T09:30:43;5.96;80.44
77839;SHT31;67034;43.226;27.932;2023-03-01T09:33:10;6.20;78.94
77839;SHT31;67034;43.226;27.932;2023-03-01T09:35:40;6.08;79.53
77839;SHT31;67034;43.226;27.932;2023-03-01T09:38:11;6.08;79.22
77839;SHT31;67034;43.226;27.932;2023-03-01T09:40:42;6.18;78.84
77839;SHT31;67034;43.226;27.932;2023-03-01T09:43:15;6.32;78.33
77839;SHT31;67034;43.226;27.932;2023-03-01T09:45:45;6.37;79.32
77839;SHT31;67034;43.226;27.932;2023-03-01T09:48:16;6.39;78.02
77839;SHT31;67034;43.226;27.932;2023-03-01T09:50:44;6.50;78.26
77839;SHT31;67034;43.226;27.932;2023-03-01T09:53:15;6.66;76.82
77839;SHT31;67034;43.226;27.932;2023-03-01T09:55:43;6.64;75.65
77839;SHT31;67034;43.226;27.932;2023-03-01T09:58:30;6.56;76.72
77839;SHT31;67034;43.226;27.932;2023-03-01T10:00:59;6.58;76.98
77839;SHT31;67034;43.226;27.932;2023-03-01T10:03:36;6.58;76.46
77839;SHT31;67034;43.226;27.932;2023-03-01T10:06:06;6.66;76.32
77839;SHT31;67034;43.226;27.932;2023-03-01T10:08:37;6.58;76.78
77839;SHT31;67034;43.226;27.932;2023-03-01T10:11:05;6.56;76.32
77839;SHT31;67034;43.226;27.932;2023-03-01T10:13:43;6.64;77.62
77839;SHT31;67034;43.226;27.932;2023-03-01T10:16:14;6.66;76.40
77839;SHT31;67034;43.226;27.932;2023-03-01T10:18:45;6.64;75.61
77839;SHT31;67034;43.226;27.932;2023-03-01T10:21:14;6.66;75.54
77839;SHT31;67034;43.226;27.932;2023-03-01T10:23:42;6.69;75.57
77839;SHT31;67034;43.226;27.932;2023-03-01T10:26:27;6.77;75.01
77839;SHT31;67034;43.226;27.932;2023-03-01T10:29:02;6.73;75.15
77839;SHT31;67034;43.226;27.932;2023-03-01T10:31:36;6.71;75.39
77839;SHT31;67034;43.226;27.932;2023-03-01T10:34:08;6.71;76.36
77839;SHT31;67034;43.226;27.932;2023-03-01T10:36:36;6.77;75.59
77839;SHT31;67034;43.226;27.932;2023-03-01T10:39:12;6.75;74.69
77839;SHT31;67034;43.226;27.932;2023-03-01T10:41:52;6.69;74.33
77839;SHT31;67034;43.226;27.932;2023-03-01T10:44:36;6.59;76.75
77839;SHT31;67034;43.226;27.932;2023-03-01T10:47:02;6.71;75.75
77839;SHT31;67034;43.226;27.932;2023-03-01T10:49:29;6.75;74.33
77839;SHT31;67034;43.226;27.932;2023-03-01T10:51:55;6.72;74.28
77839;SHT31;67034;43.226;27.932;2023-03-01T10:54:25;6.71;74.17
77839;SHT31;67034;43.226;27.932;2023-03-01T10:56:54;6.66;75.09
77839;SHT31;67034;43.226;27.932;2023-03-01T10:59:29;6.50;74.69
77839;SHT31;67034;43.226;27.932;2023-03-01T11:02:12;6.55;75.26
77839;SHT31;67034;43.226;27.932;2023-03-01T11:04:56;6.37;75.26
77839;SHT31;67034;43.226;27.932;2023-03-01T11:07:22;6.35;76.03
77839;SHT31;67034;43.226;27.932;2023-03-01T11:09:48;6.38;76.01
77839;SHT31;67034;43.226;27.932;2023-03-01T11:12:14;6.46;75.75
77839;SHT31;67034;43.226;27.932;2023-03-01T11:14:46;6.69;74.90
77839;SHT31;67034;43.226;27.932;2023-03-01T11:17:17;6.73;74.32
77839;SHT31;67034;43.226;27.932;2023-03-01T11:20:00;6.75;74.53
77839;SHT31;67034;43.226;27.932;2023-03-01T11:22:25;6.65;75.98
77839;SHT31;67034;43.226;27.932;2023-03-01T11:24:53;6.62;74.21
77839;SHT31;67034;43.226;27.932;2023-03-01T11:27:22;6.56;75.38
77839;SHT31;67034;43.226;27.932;2023-03-01T11:29:52;6.55;75.16
77839;SHT31;67034;43.226;27.932;2023-03-01T11:32:19;6.64;75.50
77839;SHT31;67034;43.226;27.932;2023-03-01T11:34:55;6.76;74.94
77839;SHT31;67034;43.226;27.932;2023-03-01T11:37:28;6.89;73.46
77839;SHT31;67034;43.226;27.932;2023-03-01T11:40:09;6.79;73.21
77839;SHT31;67034;43.226;27.932;2023-03-01T11:42:46;6.89;73.30
77839;SHT31;67034;43.226;27.932;2023-03-01T11:45:13;6.77;73.69
77839;SHT31;67034;43.226;27.932;2023-03-01T11:47:52;6.79;73.24
77839;SHT31;67034;43.226;27.932;2023-03-01T11:50:28;6.80;74.56
77839;SHT31;67034;43.226;27.932;2023-03-01T11:53:15;6.89;74.36
77839;SHT31;67034;43.226;27.932;2023-03-01T11:55:59;7.04;72.95
77839;SHT31;67034;43.226;27.932;2023-03-01T11:58:56;7.00;72.44
77839;SHT31;67034;43.226;27.932;2023-03-01T12:01:35;6.86;72.15
77839;SHT31;67034;43.226;27.932;2023-03-01T12:04:29;6.73;73.30
77839;SHT31;67034;43.226;27.932;2023-03-01T12:07:00;6.80;73.57
77839;SHT31;67034;43.226;27.932;2023-03-01T12:09:34;6.86;74.02
77839;SHT31;67034;43.226;27.932;2023-03-01T12:12:27;6.93;73.62
77839;SHT31;67034;43.226;27.932;2023-03-01T12:15:18;7.03;73.81
77839;SHT31;67034;43.226;27.932;2023-03-01T12:18:02;7.01;72.67
77839;SHT31;67034;43.226;27.932;2023-03-01T12:20:36;7.00;73.55
77839;SHT31;67034;43.226;27.932;2023-03-01T12:23:37;7.00;72.52
77839;SHT31;67034;43.226;27.932;2023-03-01T12:26:10;6.97;72.85
77839;SHT31;67034;43.226;27.932;2023-03-01T12:28:52;7.08;72.29
77839;SHT31;67034;43.226;27.932;2023-03-01T12:34:42;7.00;71.48
77839;SHT31;67034;43.226;27.932;2023-03-01T12:37:22;6.96;71.87
77839;SHT31;67034;43.226;27.932;2023-03-01T12:39:59;6.93;72.81
77839;SHT31;67034;43.226;27.932;2023-03-01T12:42:30;6.93;72.67
77839;SHT31;67034;43.226;27.932;2023-03-01T12:45:22;6.95;73.20
77839;SHT31;67034;43.226;27.932;2023-03-01T12:48:02;6.99;73.01
77839;SHT31;67034;43.226;27.932;2023-03-01T12:50:37;7.01;72.25
77839;SHT31;67034;43.226;27.932;2023-03-01T12:53:04;7.07;72.84
77839;SHT31;67034;43.226;27.932;2023-03-01T12:55:31;7.01;72.80
77839;SHT31;67034;43.226;27.932;2023-03-01T12:58:05;6.99;72.38
77839;SHT31;67034;43.226;27.932;2023-03-01T13:00:39;7.03;72.76
77839;SHT31;67034;43.226;27.932;2023-03-01T13:03:10;7.01;73.04
77839;SHT31;67034;43.226;27.932;2023-03-01T13:05:42;6.99;72.62
77839;SHT31;67034;43.226;27.932;2023-03-01T13:08:15;7.10;71.26
77839;SHT31;67034;43.226;27.932;2023-03-01T13:10:49;7.14;71.10
77839;SHT31;67034;43.226;27.932;2023-03-01T13:13:20;7.13;73.47
77839;SHT31;67034;43.226;27.932;2023-03-01T13:15:46;7.24;70.63
77839;SHT31;67034;43.226;27.932;2023-03-01T13:18:33;7.13;71.77
77839;SHT31;67034;43.226;27.932;2023-03-01T13:21:03;6.97;72.13
77839;SHT31;67034;43.226;27.932;2023-03-01T13:23:34;6.99;71.69
77839;SHT31;67034;43.226;27.932;2023-03-01T13:26:13;7.06;72.16
77839;SHT31;67034;43.226;27.932;2023-03-01T13:28:48;7.20;70.61
77839;SHT31;67034;43.226;27.932;2023-03-01T13:34:48;7.24;70.82
77839;SHT31;67034;43.226;27.932;2023-03-01T13:37:25;7.21;71.84
77839;SHT31;67034;43.226;27.932;2023-03-01T13:39:55;7.17;72.07
77839;SHT31;67034;43.226;27.932;2023-03-01T13:42:43;7.10;72.14
77839;SHT31;67034;43.226;27.932;2023-03-01T13:45:33;7.18;71.85
77839;SHT31;67034;43.226;27.932;2023-03-01T13:48:03;7.16;71.03
77839;SHT31;67034;43.226;27.932;2023-03-01T13:50:35;7.30;71.71
77839;SHT31;67034;43.226;27.932;2023-03-01T13:53:04;7.20;70.81
77839;SHT31;67034;43.226;27.932;2023-03-01T13:55:37;7.04;71.76
77839;SHT31;67034;43.226;27.932;2023-03-01T13:58:15;7.14;72.24
77839;SHT31;67034;43.226;27.932;2023-03-01T14:00:41;7.07;72.06
77839;SHT31;67034;43.226;27.932;2023-03-01T14:03:13;7.26;72.48
77839;SHT31;67034;43.226;27.932;2023-03-01T14:05:40;7.34;71.74
77839;SHT31;67034;43.226;27.932;2023-03-01T14:08:19;7.43;71.22
77839;SHT31;67034;43.226;27.932;2023-03-01T14:10:54;7.41;71.40
77839;SHT31;67034;43.226;27.932;2023-03-01T14:13:37;7.43;71.07
77839;SHT31;67034;43.226;27.932;2023-03-01T14:16:17;7.54;70.75
77839;SHT31;67034;43.226;27.932;2023-03-01T14:18:50;7.72;71.09
77839;SHT31;67034;43.226;27.932;2023-03-01T14:21:18;7.90;69.72
77839;SHT31;67034;43.226;27.932;2023-03-01T14:23:43;8.10;69.09
77839;SHT31;67034;43.226;27.932;2023-03-01T14:26:09;8.32;68.98
77839;SHT31;67034;43.226;27.932;2023-03-01T14:28:39;8.23;68.08
77839;SHT31;67034;43.226;27.932;2023-03-01T14:31:30;8.23;68.43
77839;SHT31;67034;43.226;27.932;2023-03-01T14:33:57;8.10;68.57
77839;SHT31;67034;43.226;27.932;2023-03-01T14:36:28;8.09;68.21
77839;SHT31;67034;43.226;27.932;2023-03-01T14:38:54;8.23;68.38
77839;SHT31;67034;43.226;27.932;2023-03-01T14:41:21;8.19;68.31
77839;SHT31;67034;43.226;27.932;2023-03-01T14:43:52;8.07;68.45
77839;SHT31;67034;43.226;27.932;2023-03-01T14:46:20;7.95;69.72
77839;SHT31;67034;43.226;27.932;2023-03-01T14:48:49;7.83;68.89
77839;SHT31;67034;43.226;27.932;2023-03-01T14:51:15;8.10;68.86
77839;SHT31;67034;43.226;27.932;2023-03-01T14:53:41;7.99;68.31
77839;SHT31;67034;43.226;27.932;2023-03-01T14:56:14;7.85;68.62
77839;SHT31;67034;43.226;27.932;2023-03-01T14:58:40;7.72;69.34
77839;SHT31;67034;43.226;27.932;2023-03-01T15:01:09;7.31;70.34
77839;SHT31;67034;43.226;27.932;2023-03-01T15:03:41;7.21;71.08
77839;SHT31;67034;43.226;27.932;2023-03-01T15:06:09;7.16;71.16
77839;SHT31;67034;43.226;27.932;2023-03-01T15:08:42;7.13;71.63
77839;SHT31;67034;43.226;27.932;2023-03-01T15:11:18;7.31;72.21
77839;SHT31;67034;43.226;27.932;2023-03-01T15:13:47;7.38;71.83
77839;SHT31;67034;43.226;27.932;2023-03-01T15:16:17;7.48;72.30
77839;SHT31;67034;43.226;27.932;2023-03-01T15:18:45;7.54;71.61
77839;SHT31;67034;43.226;27.932;2023-03-01T15:21:16;7.54;71.23
77839;SHT31;67034;43.226;27.932;2023-03-01T15:23:48;7.50;71.00
77839;SHT31;67034;43.226;27.932;2023-03-01T15:26:23;7.48;71.29
77839;SHT31;67034;43.226;27.932;2023-03-01T15:28:50;7.50;71.49
77839;SHT31;67034;43.226;27.932;2023-03-01T15:31:20;7.43;70.99
77839;SHT31;67034;43.226;27.932;2023-03-01T15:33:47;7.40;72.20
77839;SHT31;67034;43.226;27.932;2023-03-01T15:36:39;7.31;70.97
77839;SHT31;67034;43.226;27.932;2023-03-01T15:39:36;7.11;71.12
77839;SHT31;67034;43.226;27.932;2023-03-01T15:42:06;7.26;72.00
77839;SHT31;67034;43.226;27.932;2023-03-01T15:44:34;7.23;71.86
77839;SHT31;67034;43.226;27.932;2023-03-01T15:47:06;7.21;71.62
77839;SHT31;67034;43.226;27.932;2023-03-01T15:49:37;7.20;72.53
77839;SHT31;67034;43.226;27.932;2023-03-01T15:52:05;7.21;71.85
77839;SHT31;67034;43.226;27.932;2023-03-01T15:54:31;7.28;71.82